createdAt,value
2022-08-31T00:01:29.710Z,1003.2
2022-08-31T00:03:29.728Z,1003.2
2022-08-31T00:05:29.726Z,1003.2
2022-08-31T00:08:29.720Z,1003.1
2022-08-31T00:11:29.669Z,1003.1
2022-08-31T00:13:29.960Z,1003.1
2022-08-31T00:15:29.731Z,1003
2022-08-31T00:18:29.732Z,1003
2022-08-31T00:20:32.930Z,1003
2022-08-31T00:23:29.741Z,1003
2022-08-31T00:26:29.707Z,1003
2022-08-31T00:28:29.768Z,1003.1
2022-08-31T00:31:29.714Z,1003.1
2022-08-31T00:33:29.718Z,1003.1
2022-08-31T00:35:29.714Z,1003.1
2022-08-31T00:38:29.747Z,1003.1
2022-08-31T00:40:30.075Z,1003.1
2022-08-31T00:43:29.729Z,1003
2022-08-31T00:46:29.758Z,1003
2022-08-31T00:48:29.822Z,1003
2022-08-31T00:51:29.745Z,1003
2022-08-31T00:54:29.720Z,1002.9
2022-08-31T00:56:29.701Z,1002.9
2022-08-31T00:58:29.745Z,1002.9
2022-08-31T01:01:29.812Z,1003
2022-08-31T01:04:29.729Z,1002.9
2022-08-31T01:07:40.007Z,1003
2022-08-31T01:09:40.034Z,1003
2022-08-31T01:12:29.735Z,1002.9
2022-08-31T01:15:29.742Z,1003
2022-08-31T01:18:29.698Z,1003
2022-08-31T01:20:29.742Z,1003
2022-08-31T01:22:29.745Z,1003
2022-08-31T01:25:33.606Z,1003.1
2022-08-31T01:28:29.738Z,1003
2022-08-31T01:31:29.792Z,1003
2022-08-31T01:34:29.711Z,1003.1
2022-08-31T01:37:30.271Z,1003.1
2022-08-31T01:39:29.700Z,1003.1
2022-08-31T01:42:30.889Z,1003.1
2022-08-31T01:44:29.702Z,1003.1
2022-08-31T01:46:29.768Z,1003.1
2022-08-31T01:48:29.768Z,1003
2022-08-31T01:51:29.734Z,1003
2022-08-31T01:54:29.706Z,1003
2022-08-31T01:56:29.754Z,1003
2022-08-31T01:59:29.707Z,1003.1
2022-08-31T02:01:32.693Z,1003
2022-08-31T02:04:29.763Z,1003.1
2022-08-31T02:07:29.730Z,1003
2022-08-31T02:09:29.724Z,1003
2022-08-31T02:11:29.722Z,1003.1
2022-08-31T02:14:29.726Z,1003.1
2022-08-31T02:16:29.817Z,1003.1
2022-08-31T02:19:29.753Z,1003.1
2022-08-31T02:22:29.723Z,1003.1
2022-08-31T02:25:29.706Z,1003.1
2022-08-31T02:27:29.738Z,1003.1
2022-08-31T02:30:29.711Z,1003.1
2022-08-31T02:32:29.712Z,1003.2
2022-08-31T02:34:29.720Z,1003.1
2022-08-31T02:36:29.759Z,1003.1
2022-08-31T02:39:29.711Z,1003.1
2022-08-31T02:42:33.004Z,1003.1
2022-08-31T02:45:29.728Z,1003.1
2022-08-31T02:48:29.729Z,1003.2
2022-08-31T02:50:29.739Z,1003.2
2022-08-31T02:53:29.731Z,1003.2
2022-08-31T02:55:29.737Z,1003.2
2022-08-31T02:58:29.737Z,1003.2
2022-08-31T03:01:29.813Z,1003.1
2022-08-31T03:03:29.769Z,1003.2
2022-08-31T03:06:29.771Z,1003.2
2022-08-31T03:08:31.168Z,1003.1
2022-08-31T03:12:02.113Z,1003.1
2022-08-31T03:14:29.741Z,1003.2
2022-08-31T03:16:29.750Z,1003.2
2022-08-31T03:18:29.772Z,1003.2
2022-08-31T03:21:29.753Z,1003.2
2022-08-31T03:23:29.730Z,1003.2
2022-08-31T03:26:29.771Z,1003.2
2022-08-31T03:29:29.736Z,1003.2
2022-08-31T03:32:29.764Z,1003.2
2022-08-31T03:35:29.735Z,1003.2
2022-08-31T03:37:29.761Z,1003.2
2022-08-31T03:39:29.747Z,1003.2
2022-08-31T03:42:29.773Z,1003.3
2022-08-31T03:46:01.816Z,1003.3
2022-08-31T03:47:29.765Z,1003.3
2022-08-31T03:49:29.737Z,1003.3
2022-08-31T03:51:29.762Z,1003.3
2022-08-31T03:54:29.769Z,1003.3
2022-08-31T03:56:29.778Z,1003.3
2022-08-31T03:59:29.779Z,1003.3
2022-08-31T04:01:29.875Z,1003.4
2022-08-31T04:04:29.797Z,1003.4
2022-08-31T04:07:29.769Z,1003.4
2022-08-31T04:09:29.785Z,1003.4
2022-08-31T04:11:44.269Z,1003.5
2022-08-31T04:13:30.278Z,1003.4
2022-08-31T04:15:29.852Z,1003.5
2022-08-31T04:18:29.771Z,1003.5
2022-08-31T04:21:29.818Z,1003.5
2022-08-31T04:24:29.787Z,1003.6
2022-08-31T04:26:29.794Z,1003.5
2022-08-31T04:28:29.800Z,1003.5
2022-08-31T04:30:29.817Z,1003.5
2022-08-31T04:33:29.818Z,1003.5
2022-08-31T04:36:29.832Z,1003.5
2022-08-31T04:38:29.866Z,1003.5
2022-08-31T04:41:29.841Z,1003.6
2022-08-31T04:44:29.805Z,1003.6
2022-08-31T04:47:29.786Z,1003.6
2022-08-31T04:49:29.792Z,1003.7
2022-08-31T04:51:29.839Z,1003.7
2022-08-31T04:54:29.798Z,1003.7
2022-08-31T04:57:29.791Z,1003.7
2022-08-31T04:59:29.774Z,1003.7
2022-08-31T05:01:33.593Z,1003.7
2022-08-31T05:03:29.807Z,1003.7
2022-08-31T05:06:29.791Z,1003.8
2022-08-31T05:08:29.832Z,1003.8
2022-08-31T05:11:29.837Z,1003.8
2022-08-31T05:14:29.805Z,1003.8
2022-08-31T05:16:29.854Z,1003.8
2022-08-31T05:19:29.833Z,1003.8
2022-08-31T05:22:29.806Z,1003.8
2022-08-31T05:24:29.846Z,1003.9
2022-08-31T05:26:29.806Z,1003.9
2022-08-31T05:28:29.825Z,1004
2022-08-31T05:31:29.821Z,1004
2022-08-31T05:34:29.834Z,1004.1
2022-08-31T05:37:29.767Z,1004.1
2022-08-31T05:39:29.842Z,1004.1
2022-08-31T05:42:29.822Z,1004.2
2022-08-31T05:44:29.847Z,1004.1
2022-08-31T05:46:29.901Z,1004.2
2022-08-31T05:49:29.770Z,1004.2
2022-08-31T05:51:29.803Z,1004.2
2022-08-31T05:54:29.823Z,1004.2
2022-08-31T05:56:29.834Z,1004.2
2022-08-31T05:58:29.842Z,1004.2
2022-08-31T06:01:29.850Z,1004.2
2022-08-31T06:04:29.834Z,1004.2
2022-08-31T06:07:30.615Z,1004.2
2022-08-31T06:10:29.815Z,1004.2
2022-08-31T06:12:29.822Z,1004.2
2022-08-31T06:15:29.850Z,1004.3
2022-08-31T06:18:29.835Z,1004.3
2022-08-31T06:21:29.891Z,1004.3
2022-08-31T06:24:29.838Z,1004.3
2022-08-31T06:27:29.905Z,1004.3
2022-08-31T06:30:29.809Z,1004.4
2022-08-31T06:33:29.815Z,1004.3
2022-08-31T06:36:29.799Z,1004.4
2022-08-31T06:39:29.798Z,1004.4
2022-08-31T06:42:29.828Z,1004.4
2022-08-31T06:44:29.807Z,1004.5
2022-08-31T06:47:29.815Z,1004.5
2022-08-31T06:50:29.845Z,1004.5
2022-08-31T06:53:29.829Z,1004.6
2022-08-31T06:55:29.833Z,1004.5
2022-08-31T06:58:29.832Z,1004.6
2022-08-31T07:01:35.436Z,1004.6
2022-08-31T07:03:29.863Z,1004.5
2022-08-31T07:06:29.801Z,1004.6
2022-08-31T07:08:29.831Z,1004.5
2022-08-31T07:10:29.817Z,1004.6
2022-08-31T07:13:29.845Z,1004.6
2022-08-31T07:15:29.839Z,1004.6
2022-08-31T07:17:29.844Z,1004.6
2022-08-31T07:20:29.819Z,1004.6
2022-08-31T07:22:29.841Z,1004.7
2022-08-31T07:25:29.848Z,1004.7
2022-08-31T07:27:29.844Z,1004.7
2022-08-31T07:30:30.550Z,1004.7
2022-08-31T07:32:29.854Z,1004.7
2022-08-31T07:35:29.875Z,1004.7
2022-08-31T07:38:29.897Z,1004.8
2022-08-31T07:41:29.885Z,1004.8
2022-08-31T07:44:29.856Z,1004.8
2022-08-31T07:47:29.858Z,1004.8
2022-08-31T07:49:29.886Z,1004.8
2022-08-31T07:51:29.890Z,1004.9
2022-08-31T07:54:29.852Z,1004.9
2022-08-31T07:57:29.888Z,1004.9
2022-08-31T07:59:29.892Z,1004.9
2022-08-31T08:02:29.965Z,1004.9
2022-08-31T08:05:29.864Z,1004.9
2022-08-31T08:07:29.895Z,1005
2022-08-31T08:10:29.891Z,1005
2022-08-31T08:13:29.851Z,1005
2022-08-31T08:15:29.878Z,1005.1
2022-08-31T08:18:29.854Z,1005
2022-08-31T08:20:34.590Z,1005.2
2022-08-31T08:23:29.884Z,1005.2
2022-08-31T08:25:29.866Z,1005.3
2022-08-31T08:27:29.885Z,1005.3
2022-08-31T08:29:30.161Z,1005.3
2022-08-31T08:32:29.903Z,1005.4
2022-08-31T08:35:29.879Z,1005.4
2022-08-31T08:37:47.762Z,1005.4
2022-08-31T08:40:29.984Z,1005.5
2022-08-31T08:43:31.009Z,1005.5
2022-08-31T08:45:29.984Z,1005.5
2022-08-31T08:48:29.869Z,1005.5
2022-08-31T08:50:29.888Z,1005.5
2022-08-31T08:53:29.897Z,1005.6
2022-08-31T08:56:33.609Z,1005.6
2022-08-31T08:58:29.910Z,1005.6
2022-08-31T09:01:29.969Z,1005.6
2022-08-31T09:04:29.859Z,1005.6
2022-08-31T09:06:31.692Z,1005.7
2022-08-31T09:09:29.871Z,1005.6
2022-08-31T09:11:29.883Z,1005.7
2022-08-31T09:13:29.883Z,1005.7
2022-08-31T09:16:30.000Z,1005.7
2022-08-31T09:18:29.902Z,1005.8
2022-08-31T09:21:29.897Z,1005.8
2022-08-31T09:23:29.887Z,1005.8
2022-08-31T09:25:29.927Z,1005.9
2022-08-31T09:28:29.919Z,1005.8
2022-08-31T09:30:29.924Z,1005.8
2022-08-31T09:33:29.921Z,1005.9
2022-08-31T09:36:29.921Z,1006
2022-08-31T09:38:29.943Z,1006
2022-08-31T09:41:30.000Z,1006
2022-08-31T09:44:29.882Z,1006
2022-08-31T09:46:29.966Z,1006
2022-08-31T09:48:29.898Z,1006.1
2022-08-31T09:50:29.932Z,1006.1
2022-08-31T09:52:29.927Z,1006.1
2022-08-31T09:55:29.918Z,1006.1
2022-08-31T09:57:29.934Z,1006.1
2022-08-31T09:59:29.967Z,1006
2022-08-31T10:01:30.054Z,1006
2022-08-31T10:04:29.923Z,1006
2022-08-31T10:06:29.904Z,1006
2022-08-31T10:08:29.928Z,1006.1
2022-08-31T10:11:29.945Z,1006
2022-08-31T10:13:29.953Z,1006
2022-08-31T10:16:29.966Z,1006
2022-08-31T10:19:29.956Z,1006
2022-08-31T10:21:29.958Z,1006
2022-08-31T10:24:30.000Z,1006
2022-08-31T10:27:29.925Z,1006
2022-08-31T10:29:29.942Z,1006
2022-08-31T10:31:29.991Z,1005.9
2022-08-31T10:34:29.940Z,1005.9
2022-08-31T10:36:30.231Z,1005.9
2022-08-31T10:39:29.970Z,1005.9
2022-08-31T10:42:29.960Z,1005.9
2022-08-31T10:44:29.942Z,1005.9
2022-08-31T10:47:33.219Z,1005.8
2022-08-31T10:49:29.957Z,1005.8
2022-08-31T10:51:29.941Z,1005.8
2022-08-31T10:54:29.906Z,1005.7
2022-08-31T10:56:29.921Z,1005.7
2022-08-31T10:59:29.938Z,1005.7
2022-08-31T11:01:29.997Z,1005.7
2022-08-31T11:04:29.955Z,1005.7
2022-08-31T11:07:29.912Z,1005.7
2022-08-31T11:09:29.930Z,1005.7
2022-08-31T11:12:29.899Z,1005.7
2022-08-31T11:14:29.934Z,1005.7
2022-08-31T11:16:30.890Z,1005.7
2022-08-31T11:19:29.945Z,1005.7
2022-08-31T11:21:29.942Z,1005.7
2022-08-31T11:23:29.966Z,1005.7
2022-08-31T11:26:29.927Z,1005.7
2022-08-31T11:28:29.949Z,1005.6
2022-08-31T11:31:29.953Z,1005.6
2022-08-31T11:33:29.939Z,1005.6
2022-08-31T11:35:29.982Z,1005.6
2022-08-31T11:38:29.954Z,1005.6
2022-08-31T11:41:29.983Z,1005.6
2022-08-31T11:44:29.962Z,1005.6
2022-08-31T11:47:29.939Z,1005.6
2022-08-31T11:49:29.957Z,1005.5
2022-08-31T11:52:29.946Z,1005.6
2022-08-31T11:55:29.941Z,1005.6
2022-08-31T11:57:32.212Z,1005.7
2022-08-31T12:00:29.942Z,1005.7
2022-08-31T12:02:30.031Z,1005.7
2022-08-31T12:05:30.233Z,1005.7
2022-08-31T12:08:29.920Z,1005.7
2022-08-31T12:10:29.935Z,1005.6
2022-08-31T12:12:29.965Z,1005.6
2022-08-31T12:14:29.976Z,1005.6
2022-08-31T12:17:29.953Z,1005.6
2022-08-31T12:20:29.954Z,1005.6
2022-08-31T12:23:31.634Z,1005.6
2022-08-31T12:26:29.960Z,1005.6
2022-08-31T12:29:29.970Z,1005.5
2022-08-31T12:32:29.929Z,1005.5
2022-08-31T12:34:29.971Z,1005.5
2022-08-31T12:37:29.925Z,1005.4
2022-08-31T12:39:30.179Z,1005.4
2022-08-31T12:42:29.983Z,1005.4
2022-08-31T12:44:29.975Z,1005.4
2022-08-31T12:46:30.057Z,1005.4
2022-08-31T12:49:29.946Z,1005.3
2022-08-31T12:51:29.952Z,1005.3
2022-08-31T12:54:29.974Z,1005.3
2022-08-31T12:56:30.008Z,1005.3
2022-08-31T12:58:30.304Z,1005.3
2022-08-31T13:01:30.050Z,1005.2
2022-08-31T13:04:29.979Z,1005.2
2022-08-31T13:07:29.978Z,1005.2
2022-08-31T13:09:29.972Z,1005.1
2022-08-31T13:12:30.021Z,1005.1
2022-08-31T13:15:29.988Z,1005.1
2022-08-31T13:18:30.028Z,1005
2022-08-31T13:21:29.984Z,1005
2022-08-31T13:23:29.976Z,1005
2022-08-31T13:26:29.948Z,1005
2022-08-31T13:28:29.999Z,1005
2022-08-31T13:33:30.013Z,1004.9
2022-08-31T13:36:30.023Z,1005
2022-08-31T13:39:30.047Z,1004.9
2022-08-31T13:42:30.020Z,1004.9
2022-08-31T13:44:30.024Z,1004.9
2022-08-31T13:47:30.028Z,1004.9
2022-08-31T13:50:30.073Z,1004.8
2022-08-31T13:52:30.036Z,1004.8
2022-08-31T13:54:30.037Z,1004.8
2022-08-31T13:57:32.915Z,1004.8
2022-08-31T13:59:30.014Z,1004.7
2022-08-31T14:02:30.743Z,1004.7
2022-08-31T14:05:30.056Z,1004.7
2022-08-31T14:08:30.177Z,1004.6
2022-08-31T14:11:29.982Z,1004.6
2022-08-31T14:13:29.988Z,1004.6
2022-08-31T14:16:30.022Z,1004.6
2022-08-31T14:18:29.978Z,1004.6
2022-08-31T14:21:29.977Z,1004.6
2022-08-31T14:23:29.970Z,1004.7
2022-08-31T14:26:30.005Z,1004.6
2022-08-31T14:28:29.961Z,1004.6
2022-08-31T14:31:30.018Z,1004.5
2022-08-31T14:34:29.970Z,1004.5
2022-08-31T14:37:29.974Z,1004.5
2022-08-31T14:40:30.088Z,1004.5
2022-08-31T14:42:29.977Z,1004.4
2022-08-31T14:44:29.984Z,1004.4
2022-08-31T14:46:29.990Z,1004.4
2022-08-31T14:49:34.022Z,1004.4
2022-08-31T14:51:30.027Z,1004.4
2022-08-31T14:54:30.004Z,1004.4
2022-08-31T14:57:29.998Z,1004.3
2022-08-31T15:00:30.030Z,1004.4
2022-08-31T15:03:30.028Z,1004.4
2022-08-31T15:05:30.007Z,1004.4
2022-08-31T15:08:37.957Z,1004.4
2022-08-31T15:11:30.009Z,1004.3
2022-08-31T15:13:30.032Z,1004.3
2022-08-31T15:16:30.002Z,1004.4
2022-08-31T15:18:30.019Z,1004.4
2022-08-31T15:20:29.995Z,1004.4
2022-08-31T15:22:30.024Z,1004.4
2022-08-31T15:25:30.036Z,1004.3
2022-08-31T15:27:30.031Z,1004.3
2022-08-31T15:30:30.025Z,1004.3
2022-08-31T15:32:30.020Z,1004.3
2022-08-31T15:35:30.035Z,1004.3
2022-08-31T15:38:29.978Z,1004.3
2022-08-31T15:41:30.002Z,1004.3
2022-08-31T15:43:30.039Z,1004.2
2022-08-31T15:46:30.083Z,1004.2
2022-08-31T15:49:30.013Z,1004.2
2022-08-31T15:51:30.016Z,1004.2
2022-08-31T15:53:30.030Z,1004.2
2022-08-31T15:56:30.486Z,1004.1
2022-08-31T15:59:30.032Z,1004.1
2022-08-31T16:01:30.125Z,1004.1
2022-08-31T16:04:30.014Z,1004
2022-08-31T16:06:30.064Z,1004
2022-08-31T16:09:30.068Z,1003.9
2022-08-31T16:12:30.055Z,1003.8
2022-08-31T16:15:32.769Z,1003.9
2022-08-31T16:18:30.063Z,1003.8
2022-08-31T16:21:30.046Z,1003.8
2022-08-31T16:24:30.045Z,1003.8
2022-08-31T16:26:30.067Z,1003.8
2022-08-31T16:29:30.047Z,1003.7
2022-08-31T16:32:30.062Z,1003.8
2022-08-31T16:34:30.065Z,1003.8
2022-08-31T16:37:30.073Z,1003.8
2022-08-31T16:40:30.179Z,1003.8
2022-08-31T16:42:30.093Z,1003.8
2022-08-31T16:44:30.217Z,1003.8
2022-08-31T16:47:30.079Z,1003.8
2022-08-31T16:49:30.373Z,1003.7
2022-08-31T16:52:30.077Z,1003.7
2022-08-31T16:54:30.068Z,1003.6
2022-08-31T16:56:30.086Z,1003.7
2022-08-31T16:59:30.042Z,1003.7
2022-08-31T17:01:30.142Z,1003.7
2022-08-31T17:04:50.794Z,1003.7
2022-08-31T17:06:30.084Z,1003.7
2022-08-31T17:09:30.110Z,1003.7
2022-08-31T17:13:02.266Z,1003.8
2022-08-31T17:14:30.073Z,1003.7
2022-08-31T17:16:30.189Z,1003.7
2022-08-31T17:19:30.047Z,1003.8
2022-08-31T17:21:30.084Z,1003.8
2022-08-31T17:24:30.046Z,1003.9
2022-08-31T17:26:30.067Z,1003.8
2022-08-31T17:29:30.117Z,1003.9
2022-08-31T17:32:30.044Z,1003.9
2022-08-31T17:35:30.129Z,1003.9
2022-08-31T17:37:30.077Z,1003.9
2022-08-31T17:40:30.179Z,1003.9
2022-08-31T17:43:30.103Z,1003.9
2022-08-31T17:46:30.246Z,1003.9
2022-08-31T17:49:30.055Z,1003.9
2022-08-31T17:51:30.092Z,1004
2022-08-31T17:54:30.039Z,1004.1
2022-08-31T17:57:30.100Z,1004
2022-08-31T17:59:30.073Z,1004.1
2022-08-31T18:01:30.084Z,1004.1
2022-08-31T18:04:30.131Z,1004.1
2022-08-31T18:07:30.127Z,1004
2022-08-31T18:10:30.093Z,1004.1
2022-08-31T18:12:30.125Z,1004.1
2022-08-31T18:15:30.096Z,1004.1
2022-08-31T18:17:30.097Z,1004.1
2022-08-31T18:20:30.068Z,1004.1
2022-08-31T18:22:30.083Z,1004.1
2022-08-31T18:25:30.074Z,1004.2
2022-08-31T18:27:30.092Z,1004.2
2022-08-31T18:30:30.107Z,1004.2
2022-08-31T18:33:30.096Z,1004.2
2022-08-31T18:36:30.112Z,1004.2
2022-08-31T18:39:50.413Z,1004.2
2022-08-31T18:41:30.096Z,1004.2
2022-08-31T18:43:30.104Z,1004.3
2022-08-31T18:45:30.111Z,1004.3
2022-08-31T18:48:30.100Z,1004.3
2022-08-31T18:51:30.098Z,1004.3
2022-08-31T18:54:30.078Z,1004.3
2022-08-31T18:57:30.119Z,1004.3
2022-08-31T18:59:30.089Z,1004.3
2022-08-31T19:01:33.559Z,1004.3
2022-08-31T19:04:30.091Z,1004.3
2022-08-31T19:06:30.135Z,1004.3
2022-08-31T19:09:30.133Z,1004.3
2022-08-31T19:12:30.117Z,1004.3
2022-08-31T19:14:30.149Z,1004.3
2022-08-31T19:16:30.188Z,1004.4
2022-08-31T19:19:30.118Z,1004.4
2022-08-31T19:21:30.211Z,1004.4
2022-08-31T19:24:30.151Z,1004.4
2022-08-31T19:27:30.115Z,1004.3
2022-08-31T19:30:30.201Z,1004.3
2022-08-31T19:33:30.156Z,1004.3
2022-08-31T19:36:30.099Z,1004.3
2022-08-31T19:38:30.172Z,1004.3
2022-08-31T19:41:30.139Z,1004.3
2022-08-31T19:45:42.194Z,1004.3
2022-08-31T19:47:30.269Z,1004.4
2022-08-31T19:50:30.148Z,1004.4
2022-08-31T19:53:30.183Z,1004.4
2022-08-31T19:56:30.144Z,1004.3
2022-08-31T19:59:30.120Z,1004.3
2022-08-31T20:01:30.181Z,1004.3
2022-08-31T20:03:30.147Z,1004.3
2022-08-31T20:05:30.149Z,1004.3
2022-08-31T20:08:30.129Z,1004.3
2022-08-31T20:10:30.422Z,1004.3
2022-08-31T20:13:30.163Z,1004.2
2022-08-31T20:17:34.925Z,1004.3
2022-08-31T20:18:30.137Z,1004.3
2022-08-31T20:21:30.191Z,1004.2
2022-08-31T20:24:30.170Z,1004.2
2022-08-31T20:26:33.324Z,1004.1
2022-08-31T20:28:45.639Z,1004.2
2022-08-31T20:30:30.204Z,1004.2
2022-08-31T20:33:30.184Z,1004.2
2022-08-31T20:35:30.188Z,1004.2
2022-08-31T20:37:30.174Z,1004.2
2022-08-31T20:40:30.197Z,1004.2
2022-08-31T20:43:32.449Z,1004.2
2022-08-31T20:45:30.181Z,1004.2
2022-08-31T20:48:30.186Z,1004.2
2022-08-31T20:51:30.162Z,1004.2
2022-08-31T20:54:30.142Z,1004.2
2022-08-31T20:56:30.154Z,1004.3
2022-08-31T20:58:30.156Z,1004.3
2022-08-31T21:00:30.175Z,1004.3
2022-08-31T21:03:30.130Z,1004.3
2022-08-31T21:06:30.178Z,1004.3
2022-08-31T21:09:30.133Z,1004.4
2022-08-31T21:11:30.151Z,1004.4
2022-08-31T21:13:30.146Z,1004.4
2022-08-31T21:16:30.220Z,1004.4
2022-08-31T21:19:30.153Z,1004.4
2022-08-31T21:22:30.111Z,1004.4
2022-08-31T21:24:30.142Z,1004.4
2022-08-31T21:27:30.175Z,1004.4
2022-08-31T21:30:30.158Z,1004.4
2022-08-31T21:32:30.182Z,1004.4
2022-08-31T21:34:30.139Z,1004.4
2022-08-31T21:37:30.138Z,1004.4
2022-08-31T21:41:30.440Z,1004.4
2022-08-31T21:44:30.146Z,1004.4
2022-08-31T21:46:30.227Z,1004.4
2022-08-31T21:48:30.213Z,1004.4
2022-08-31T21:51:30.162Z,1004.4
2022-08-31T21:54:30.180Z,1004.4
2022-08-31T21:57:30.191Z,1004.4
2022-08-31T22:00:30.178Z,1004.5
2022-08-31T22:03:30.150Z,1004.5
2022-08-31T22:05:30.191Z,1004.5
2022-08-31T22:08:30.172Z,1004.5
2022-08-31T22:11:30.160Z,1004.5
2022-08-31T22:13:30.184Z,1004.5
2022-08-31T22:15:30.210Z,1004.5
2022-08-31T22:17:48.506Z,1004.5
2022-08-31T22:20:30.148Z,1004.5
2022-08-31T22:23:30.302Z,1004.5
2022-08-31T22:26:30.170Z,1004.5
2022-08-31T22:29:30.201Z,1004.5
2022-08-31T22:32:30.187Z,1004.5
2022-08-31T22:34:30.187Z,1004.5
2022-08-31T22:37:30.166Z,1004.5
2022-08-31T22:39:30.195Z,1004.6
2022-08-31T22:42:30.210Z,1004.6
2022-08-31T22:45:30.207Z,1004.6
2022-08-31T22:48:30.179Z,1004.6
2022-08-31T22:50:30.211Z,1004.6
2022-08-31T22:52:30.193Z,1004.6
2022-08-31T22:55:30.281Z,1004.6
2022-08-31T22:58:30.187Z,1004.6
2022-08-31T23:01:30.249Z,1004.6
2022-08-31T23:04:30.288Z,1004.6
2022-08-31T23:07:30.210Z,1004.5
2022-08-31T23:10:30.201Z,1004.5
2022-08-31T23:13:30.182Z,1004.5
2022-08-31T23:15:30.226Z,1004.5
2022-08-31T23:18:30.208Z,1004.5
2022-08-31T23:21:30.182Z,1004.5
2022-08-31T23:23:30.429Z,1004.5
2022-08-31T23:26:30.230Z,1004.4
2022-08-31T23:28:30.235Z,1004.5
2022-08-31T23:31:30.268Z,1004.5
2022-08-31T23:34:30.201Z,1004.4
2022-08-31T23:36:30.207Z,1004.4
2022-08-31T23:39:30.208Z,1004.4
2022-08-31T23:42:30.631Z,1004.3
2022-08-31T23:45:30.176Z,1004.3
2022-08-31T23:47:30.210Z,1004.3
2022-08-31T23:49:30.188Z,1004.3
2022-08-31T23:51:30.201Z,1004.3
2022-08-31T23:53:33.326Z,1004.3
2022-08-31T23:56:30.218Z,1004.3
2022-08-31T23:59:30.253Z,1004.3
